Time;durP1;ratioP1;P1;durP2;ratioP2;P2;SDS_P1;SDS_P2;PMS_P1;PMS_P2;Temp;Humidity;BMP_temperature;BMP_pressure;BME280_temperature;BME280_humidity;BME280_pressure;Samples;Min_cycle;Max_cycle;Signal;HPM_P1;HPM_P2
2021/09/28 00:01:47;;;;;;;;;;;15.90;1.00;;;;;;5049503;28;19959;-63
2021/09/28 00:04:13;;;;;;;;;;;15.90;1.00;;;;;;5049088;28;20282;-62
2021/09/28 00:06:38;;;;;;;;;;;15.90;1.00;;;;;;5049078;28;20647;-60
2021/09/28 00:09:04;;;;;;;;;;;15.90;1.00;;;;;;5048828;28;19909;-62
2021/09/28 00:11:30;;;;;;;;;;;15.90;1.00;;;;;;5049080;28;20022;-61
2021/09/28 00:13:55;;;;;;;;;;;16.00;1.00;;;;;;5046610;28;20265;-61
2021/09/28 00:16:21;;;;;;;;;;;16.10;1.00;;;;;;5049096;28;19940;-61
2021/09/28 00:18:46;;;;;;;;;;;16.10;1.00;;;;;;5050993;28;19909;-62
2021/09/28 00:21:12;;;;;;;;;;;16.10;1.00;;;;;;5049605;28;19982;-58
2021/09/28 00:23:37;;;;;;;;;;;16.00;1.00;;;;;;5049239;28;19924;-61
2021/09/28 00:26:03;;;;;;;;;;;16.00;1.00;;;;;;5049299;28;19924;-62
2021/09/28 00:28:30;;;;;;;;;;;16.00;1.00;;;;;;5048257;28;20289;-63
2021/09/28 00:30:55;;;;;;;;;;;15.90;1.00;;;;;;5048162;28;19909;-62
2021/09/28 00:33:21;;;;;;;;;;;15.80;1.00;;;;;;5047508;28;19909;-62
2021/09/28 00:35:46;;;;;;;;;;;15.80;1.00;;;;;;5048314;28;19909;-60
2021/09/28 00:38:12;;;;;;;;;;;15.70;1.00;;;;;;5048775;28;20003;-61
2021/09/28 00:40:37;;;;;;;;;;;15.60;1.00;;;;;;5048265;28;20243;-60
2021/09/28 00:43:03;;;;;;;;;;;15.50;1.00;;;;;;5046977;28;19963;-62
2021/09/28 00:45:28;;;;;;;;;;;15.50;1.00;;;;;;5029504;28;20281;-63
2021/09/28 00:47:54;;;;;;;;;;;15.40;1.00;;;;;;5051745;28;19963;-63
2021/09/28 00:50:19;;;;;;;;;;;15.40;1.00;;;;;;5052204;28;19955;-63
2021/09/28 00:52:46;;;;;;;;;;;15.30;1.00;;;;;;5051399;28;20233;-62
2021/09/28 00:55:14;;;;;;;;;;;15.40;1.00;;;;;;5052471;28;19913;-63
2021/09/28 00:57:39;;;;;;;;;;;15.50;1.00;;;;;;5050325;28;19909;-63
2021/09/28 01:00:07;;;;;;;;;;;15.60;1.00;;;;;;5051256;28;19928;-63
2021/09/28 01:02:33;;;;;;;;;;;15.60;1.00;;;;;;5034794;28;20432;-63
2021/09/28 01:05:02;;;;;;;;;;;15.70;1.00;;;;;;5031388;28;19917;-63
2021/09/28 01:07:28;;;;;;;;;;;15.80;1.00;;;;;;5031435;28;20399;-64
2021/09/28 01:09:53;;;;;;;;;;;15.80;1.00;;;;;;5034471;28;19956;-63
2021/09/28 01:12:19;;;;;;;;;;;15.90;1.00;;;;;;5049875;28;19912;-62
2021/09/28 01:14:45;;;;;;;;;;;15.90;1.00;;;;;;5049860;28;19908;-63
2021/09/28 01:17:14;;;;;;;;;;;15.90;1.00;;;;;;5051631;28;19963;-61
2021/09/28 01:19:40;;;;;;;;;;;15.80;1.00;;;;;;5050426;28;20413;-63
2021/09/28 01:22:09;;;;;;;;;;;15.80;1.00;;;;;;5050776;28;20008;-64
2021/09/28 01:24:35;;;;;;;;;;;15.70;1.00;;;;;;5051256;28;20070;-62
2021/09/28 01:27:01;;;;;;;;;;;15.70;1.00;;;;;;5050808;28;20008;-63
2021/09/28 01:29:27;;;;;;;;;;;15.70;1.00;;;;;;5050369;28;19919;-63
2021/09/28 01:31:52;;;;;;;;;;;15.80;1.00;;;;;;5050456;28;19916;-62
2021/09/28 01:34:19;;;;;;;;;;;15.80;1.00;;;;;;5050206;28;20362;-62
2021/09/28 01:36:47;;;;;;;;;;;15.90;1.00;;;;;;5050614;28;19940;-64
2021/09/28 01:39:13;;;;;;;;;;;16.00;1.00;;;;;;5045560;28;20568;-63
2021/09/28 01:41:39;;;;;;;;;;;16.10;1.00;;;;;;5050477;28;20724;-63
2021/09/28 01:44:09;;;;;;;;;;;16.20;1.00;;;;;;5049625;28;19956;-63
2021/09/28 01:46:35;;;;;;;;;;;16.20;1.00;;;;;;5051103;28;19940;-63
2021/09/28 01:49:02;;;;;;;;;;;16.30;1.00;;;;;;5050361;28;19909;-63
2021/09/28 01:51:28;;;;;;;;;;;16.30;1.00;;;;;;5050803;28;19909;-63
2021/09/28 01:53:53;;;;;;;;;;;16.40;1.00;;;;;;5049920;28;19916;-64
2021/09/28 01:56:19;;;;;;;;;;;16.40;1.00;;;;;;5050628;28;19924;-63
2021/09/28 01:58:45;;;;;;;;;;;16.40;1.00;;;;;;5050061;28;19943;-62
2021/09/28 02:01:10;;;;;;;;;;;16.50;1.00;;;;;;5050739;28;19908;-62
2021/09/28 02:03:36;;;;;;;;;;;16.50;1.00;;;;;;5049619;28;20004;-63
2021/09/28 02:06:01;;;;;;;;;;;16.50;1.00;;;;;;5050736;28;19912;-63
2021/09/28 02:08:27;;;;;;;;;;;16.50;1.00;;;;;;5050889;28;19909;-63
2021/09/28 02:10:52;;;;;;;;;;;16.40;1.00;;;;;;5050634;28;20798;-62
2021/09/28 02:13:18;;;;;;;;;;;16.40;1.00;;;;;;5049209;28;19935;-63
2021/09/28 02:15:43;;;;;;;;;;;16.40;1.00;;;;;;5050511;28;20002;-63
2021/09/28 02:18:09;;;;;;;;;;;16.40;1.00;;;;;;5049836;28;19919;-63
2021/09/28 02:20:34;;;;;;;;;;;16.40;1.00;;;;;;5050488;28;19974;-63
2021/09/28 02:23:00;;;;;;;;;;;16.30;1.00;;;;;;5049768;28;19970;-64
2021/09/28 02:25:25;;;;;;;;;;;16.30;99.90;;;;;;5050314;28;19916;-63
2021/09/28 02:27:51;;;;;;;;;;;16.20;99.90;;;;;;5049416;28;19908;-63
2021/09/28 02:30:16;;;;;;;;;;;16.20;99.90;;;;;;5049679;28;19912;-63
2021/09/28 02:32:42;;;;;;;;;;;16.20;99.90;;;;;;5048548;28;19913;-63
2021/09/28 02:35:08;;;;;;;;;;;16.20;1.00;;;;;;5050024;28;19947;-63
2021/09/28 02:37:33;;;;;;;;;;;16.10;15.50;;;;;;5049799;28;20005;-61
2021/09/28 02:39:59;;;;;;;;;;;16.10;1.00;;;;;;5049896;28;19928;-62
2021/09/28 02:42:24;;;;;;;;;;;16.10;1.00;;;;;;5048278;28;20665;-62
2021/09/28 02:44:52;;;;;;;;;;;16.00;1.00;;;;;;5049600;28;19909;-63
2021/09/28 02:47:18;;;;;;;;;;;16.00;99.90;;;;;;5049696;28;20389;-63
2021/09/28 02:49:43;;;;;;;;;;;16.00;1.00;;;;;;5049743;28;19913;-62
2021/09/28 02:52:09;;;;;;;;;;;15.90;1.00;;;;;;5049126;28;20266;-63
2021/09/28 02:54:34;;;;;;;;;;;15.90;1.00;;;;;;5049556;28;19912;-63
2021/09/28 02:57:00;;;;;;;;;;;15.90;1.00;;;;;;5049451;28;19983;-63
2021/09/28 02:59:25;;;;;;;;;;;15.90;1.00;;;;;;5048689;28;19920;-63
2021/09/28 03:01:51;;;;;;;;;;;15.90;1.00;;;;;;5049315;28;19913;-63
2021/09/28 03:04:16;;;;;;;;;;;15.90;1.00;;;;;;5048566;28;19916;-63
2021/09/28 03:06:42;;;;;;;;;;;15.80;1.00;;;;;;5049925;28;19967;-60
2021/09/28 03:09:07;;;;;;;;;;;15.80;1.00;;;;;;5048878;28;19912;-63
2021/09/28 03:11:33;;;;;;;;;;;15.80;1.00;;;;;;5049178;28;19944;-64
2021/09/28 03:13:59;;;;;;;;;;;15.80;1.00;;;;;;5047678;28;20008;-63
2021/09/28 03:16:24;;;;;;;;;;;15.80;1.00;;;;;;5049773;28;19916;-63
2021/09/28 03:18:50;;;;;;;;;;;15.70;1.00;;;;;;5048695;28;19909;-64
2021/09/28 03:21:15;;;;;;;;;;;15.70;1.00;;;;;;5049988;28;19967;-63
2021/09/28 03:23:42;;;;;;;;;;;15.50;1.00;;;;;;5048240;28;19913;-63
2021/09/28 03:26:08;;;;;;;;;;;15.50;1.00;;;;;;5049207;28;19909;-63
2021/09/28 03:28:33;;;;;;;;;;;15.40;1.00;;;;;;5047933;28;19909;-64
2021/09/28 03:30:59;;;;;;;;;;;15.30;1.00;;;;;;5048574;28;19909;-63
2021/09/28 03:33:25;;;;;;;;;;;15.20;1.00;;;;;;5047925;28;20292;-64
2021/09/28 03:35:51;;;;;;;;;;;15.20;1.00;;;;;;5049054;28;19909;-64
2021/09/28 03:38:16;;;;;;;;;;;15.20;1.00;;;;;;5048752;28;19955;-61
2021/09/28 03:40:42;;;;;;;;;;;15.20;1.00;;;;;;5048493;28;19946;-63
2021/09/28 03:43:07;;;;;;;;;;;15.20;1.00;;;;;;5047328;28;20339;-62
2021/09/28 03:45:34;;;;;;;;;;;15.10;1.00;;;;;;5048791;28;19909;-64
2021/09/28 03:47:59;;;;;;;;;;;15.10;1.00;;;;;;5048242;28;19919;-62
2021/09/28 03:50:27;;;;;;;;;;;15.00;1.00;;;;;;5048494;28;20238;-63
2021/09/28 03:52:53;;;;;;;;;;;15.00;99.90;;;;;;5047644;28;19912;-63
2021/09/28 03:55:21;;;;;;;;;;;15.00;1.00;;;;;;5048990;28;19931;-63
2021/09/28 03:57:47;;;;;;;;;;;14.90;99.90;;;;;;5048241;28;20007;-63
2021/09/28 04:00:13;;;;;;;;;;;14.80;99.90;;;;;;5048356;28;19999;-62
2021/09/28 04:02:38;;;;;;;;;;;14.80;1.00;;;;;;5030203;28;20350;-63
2021/09/28 04:05:04;;;;;;;;;;;14.80;1.00;;;;;;5028629;28;19978;-63
2021/09/28 04:07:30;;;;;;;;;;;14.70;1.00;;;;;;5028653;28;19964;-63
2021/09/28 04:09:55;;;;;;;;;;;14.70;1.00;;;;;;5031767;28;19974;-63
2021/09/28 04:12:23;;;;;;;;;;;14.80;1.00;;;;;;5047050;28;19966;-63
2021/09/28 04:14:48;;;;;;;;;;;14.70;1.00;;;;;;5048009;28;19909;-63
2021/09/28 04:17:14;;;;;;;;;;;14.80;99.90;;;;;;5048830;28;20469;-63
2021/09/28 04:19:39;;;;;;;;;;;14.80;99.90;;;;;;5043743;28;19913;-63
2021/09/28 04:22:06;;;;;;;;;;;14.80;54.20;;;;;;5049758;28;20020;-63
2021/09/28 04:24:31;;;;;;;;;;;14.80;1.00;;;;;;5051903;28;19908;-62
2021/09/28 04:26:57;;;;;;;;;;;14.70;1.00;;;;;;5051826;28;19915;-63
2021/09/28 04:29:22;;;;;;;;;;;14.60;1.00;;;;;;5051147;28;19959;-63
2021/09/28 04:31:48;;;;;;;;;;;14.60;1.00;;;;;;5051221;28;19913;-63
2021/09/28 04:34:13;;;;;;;;;;;14.60;1.00;;;;;;5051492;28;20402;-63
2021/09/28 04:36:39;;;;;;;;;;;14.60;1.00;;;;;;5052242;28;19919;-63
2021/09/28 04:39:04;;;;;;;;;;;14.60;1.00;;;;;;5045902;28;20281;-62
2021/09/28 04:41:30;;;;;;;;;;;14.60;1.00;;;;;;5044789;28;19913;-63
2021/09/28 04:43:55;;;;;;;;;;;14.60;1.00;;;;;;5050854;28;19920;-63
2021/09/28 04:46:21;;;;;;;;;;;14.60;1.00;;;;;;5049845;28;19916;-63
2021/09/28 04:48:46;;;;;;;;;;;14.60;85.10;;;;;;5048116;28;20055;-63
2021/09/28 04:51:12;;;;;;;;;;;14.60;99.90;;;;;;5050781;28;20337;-62
2021/09/28 04:53:37;;;;;;;;;;;14.60;1.00;;;;;;5050929;28;19916;-61
2021/09/28 04:56:03;;;;;;;;;;;14.60;1.00;;;;;;5052014;28;19913;-63
2021/09/28 04:58:28;;;;;;;;;;;14.60;1.00;;;;;;5050931;28;20211;-63
2021/09/28 05:00:54;;;;;;;;;;;14.60;1.00;;;;;;5050312;28;20369;-63
2021/09/28 05:03:19;;;;;;;;;;;14.50;1.00;;;;;;5050167;28;20059;-62
2021/09/28 05:05:47;;;;;;;;;;;14.40;43.40;;;;;;5046130;28;20327;-66
2021/09/28 05:08:12;;;;;;;;;;;14.40;99.90;;;;;;5038770;28;19979;-64
2021/09/28 05:10:38;;;;;;;;;;;14.40;99.90;;;;;;5046640;28;20071;-65
2021/09/28 05:13:05;;;;;;;;;;;14.40;99.90;;;;;;5038003;28;20316;-65
2021/09/28 05:15:31;;;;;;;;;;;14.40;99.90;;;;;;5031686;28;19913;-64
2021/09/28 05:17:56;;;;;;;;;;;14.40;1.00;;;;;;5032945;28;20007;-61
2021/09/28 05:20:22;;;;;;;;;;;14.40;52.00;;;;;;5049005;28;19928;-61
2021/09/28 05:22:47;;;;;;;;;;;14.50;1.00;;;;;;5030957;28;19913;-60
2021/09/28 05:25:13;;;;;;;;;;;14.40;1.00;;;;;;5046091;28;20054;-60
2021/09/28 05:27:38;;;;;;;;;;;14.50;78.30;;;;;;5038115;28;19917;-62
2021/09/28 05:30:04;;;;;;;;;;;14.50;21.20;;;;;;5050799;28;19912;-62
2021/09/28 05:32:30;;;;;;;;;;;14.60;1.00;;;;;;5033299;28;19920;-63
2021/09/28 05:34:55;;;;;;;;;;;14.60;1.00;;;;;;5043703;28;19920;-62
2021/09/28 05:37:21;;;;;;;;;;;14.60;1.00;;;;;;5033660;28;20299;-65
2021/09/28 05:39:46;;;;;;;;;;;14.60;99.90;;;;;;5040601;28;19917;-63
2021/09/28 05:42:13;;;;;;;;;;;14.60;1.00;;;;;;5034146;28;19959;-63
2021/09/28 05:44:38;;;;;;;;;;;14.60;1.00;;;;;;5034958;28;19982;-60
2021/09/28 05:47:04;;;;;;;;;;;14.70;99.90;;;;;;5044429;28;20288;-64
2021/09/28 05:49:32;;;;;;;;;;;14.70;99.90;;;;;;5010204;28;20103;-64
2021/09/28 05:51:59;;;;;;;;;;;14.70;99.90;;;;;;5041076;28;19919;-64
2021/09/28 05:54:25;;;;;;;;;;;14.70;99.90;;;;;;5047456;28;19909;-65
2021/09/28 05:56:51;;;;;;;;;;;14.70;57.70;;;;;;5042831;28;19917;-66
2021/09/28 05:59:18;;;;;;;;;;;14.70;1.00;;;;;;5031257;28;20490;-64
2021/09/28 06:01:43;;;;;;;;;;;14.80;1.00;;;;;;5039465;28;20460;-64
2021/09/28 06:04:09;;;;;;;;;;;14.80;1.00;;;;;;5042235;28;19991;-65
2021/09/28 06:06:35;;;;;;;;;;;14.90;1.00;;;;;;5051764;28;19920;-64
2021/09/28 06:09:00;;;;;;;;;;;15.00;1.00;;;;;;5044906;28;20601;-64
2021/09/28 06:11:26;;;;;;;;;;;15.10;99.90;;;;;;5033102;28;19917;-63
2021/09/28 06:13:52;;;;;;;;;;;15.20;99.90;;;;;;5031864;28;19925;-63
2021/09/28 06:16:17;;;;;;;;;;;15.30;1.00;;;;;;5040944;28;20321;-62
2021/09/28 06:18:43;;;;;;;;;;;15.40;1.00;;;;;;5038115;28;19924;-63
2021/09/28 06:21:08;;;;;;;;;;;15.50;1.00;;;;;;5045652;28;19921;-65
2021/09/28 06:23:34;;;;;;;;;;;15.70;99.90;;;;;;5036284;28;20235;-64
2021/09/28 06:25:59;;;;;;;;;;;15.70;99.90;;;;;;5040866;28;19917;-64
2021/09/28 06:28:25;;;;;;;;;;;15.80;90.30;;;;;;5046386;28;19912;-64
2021/09/28 06:30:50;;;;;;;;;;;15.70;25.80;;;;;;5033465;28;19928;-61
2021/09/28 06:33:16;;;;;;;;;;;15.70;1.00;;;;;;5037241;28;19920;-64
2021/09/28 06:35:41;;;;;;;;;;;15.80;1.00;;;;;;5036952;28;20294;-65
2021/09/28 06:38:07;;;;;;;;;;;15.80;1.00;;;;;;5009312;28;19920;-65
2021/09/28 06:40:34;;;;;;;;;;;15.90;1.00;;;;;;5026478;28;19913;-65
2021/09/28 06:42:59;;;;;;;;;;;16.00;1.00;;;;;;5044559;28;20014;-65
2021/09/28 06:45:25;;;;;;;;;;;16.10;1.00;;;;;;5044015;28;20370;-64
2021/09/28 06:47:50;;;;;;;;;;;16.20;1.00;;;;;;5038091;28;19963;-65
2021/09/28 06:50:16;;;;;;;;;;;16.30;99.90;;;;;;5041005;28;19912;-64
2021/09/28 06:52:43;;;;;;;;;;;16.40;99.90;;;;;;5040457;28;20412;-65
2021/09/28 06:55:09;;;;;;;;;;;16.50;99.90;;;;;;5034602;28;19916;-64
2021/09/28 06:57:35;;;;;;;;;;;16.70;99.90;;;;;;5025891;28;19917;-65
2021/09/28 07:00:00;;;;;;;;;;;17.00;85.60;;;;;;5029138;28;19970;-65
2021/09/28 07:02:27;;;;;;;;;;;17.40;1.00;;;;;;5038316;28;20362;-65
2021/09/28 07:04:53;;;;;;;;;;;17.80;1.00;;;;;;5026627;28;19984;-62
2021/09/28 07:07:19;;;;;;;;;;;19.70;1.00;;;;;;5037450;28;20340;-65
2021/09/28 07:09:45;;;;;;;;;;;20.30;99.90;;;;;;5046013;28;20289;-63
2021/09/28 07:12:10;;;;;;;;;;;20.20;99.90;;;;;;5034541;28;19970;-64
2021/09/28 07:14:36;;;;;;;;;;;20.30;99.90;;;;;;5028956;28;20073;-65
2021/09/28 07:17:01;;;;;;;;;;;20.20;99.90;;;;;;5026976;28;19920;-63
2021/09/28 07:19:27;;;;;;;;;;;20.40;99.90;;;;;;5026385;28;19917;-64
2021/09/28 07:21:52;;;;;;;;;;;21.20;99.90;;;;;;5029698;28;19914;-65
2021/09/28 07:24:18;;;;;;;;;;;21.10;99.90;;;;;;5031991;28;19917;-65
2021/09/28 07:26:43;;;;;;;;;;;20.80;99.90;;;;;;5046710;28;20338;-64
2021/09/28 07:29:09;;;;;;;;;;;20.50;99.90;;;;;;5036213;28;19912;-65
2021/09/28 07:31:34;;;;;;;;;;;20.50;99.90;;;;;;5038147;28;20021;-63
2021/09/28 07:34:00;;;;;;;;;;;20.60;99.90;;;;;;5034041;28;19975;-64
2021/09/28 07:36:25;;;;;;;;;;;20.60;99.90;;;;;;5027336;28;20481;-65
2021/09/28 07:38:51;;;;;;;;;;;21.30;99.90;;;;;;5038154;28;20020;-63
2021/09/28 07:41:17;;;;;;;;;;;21.60;99.90;;;;;;5032591;28;20019;-63
2021/09/28 07:43:44;;;;;;;;;;;21.40;99.90;;;;;;5034007;28;20315;-65
2021/09/28 07:46:09;;;;;;;;;;;21.40;99.90;;;;;;5037495;28;20348;-65
2021/09/28 07:48:35;;;;;;;;;;;21.10;99.90;;;;;;5034383;28;19996;-65
2021/09/28 07:51:00;;;;;;;;;;;21.00;99.90;;;;;;5040234;28;19953;-65
2021/09/28 07:53:26;;;;;;;;;;;21.10;99.90;;;;;;5037307;28;20008;-63
2021/09/28 07:55:52;;;;;;;;;;;21.40;99.90;;;;;;5029970;28;20300;-65
2021/09/28 07:58:17;;;;;;;;;;;21.10;99.90;;;;;;5029327;28;19920;-64
2021/09/28 08:00:43;;;;;;;;;;;21.00;99.90;;;;;;5027887;28;19921;-64
2021/09/28 08:03:09;;;;;;;;;;;21.00;99.90;;;;;;5043244;28;20007;-63
2021/09/28 08:05:34;;;;;;;;;;;20.90;99.90;;;;;;5038000;28;19983;-63
2021/09/28 08:08:00;;;;;;;;;;;21.00;99.90;;;;;;5043737;28;19920;-64
2021/09/28 08:10:25;;;;;;;;;;;21.70;99.90;;;;;;5047665;28;20007;-63
2021/09/28 08:12:51;;;;;;;;;;;22.50;99.90;;;;;;5028637;28;20007;-64
2021/09/28 08:15:16;;;;;;;;;;;25.70;99.90;;;;;;5029615;28;19971;-64
2021/09/28 08:17:42;;;;;;;;;;;;;;;;;;5045906;28;19917;-64
2021/09/28 08:20:09;;;;;;;;;;;37.10;99.90;;;;;;5031867;28;20277;-64
2021/09/28 08:22:38;;;;;;;;;;;40.30;99.90;;;;;;5035542;28;19917;-64
2021/09/28 08:25:08;;;;;;;;;;;43.20;99.90;;;;;;5038267;28;19913;-65
2021/09/28 08:30:17;;;;;;;;;;;46.00;99.90;;;;;;5039870;28;20365;-64
2021/09/28 08:32:43;;;;;;;;;;;46.30;99.90;;;;;;5030177;28;19925;-63
2021/09/28 08:35:08;;;;;;;;;;;46.90;99.90;;;;;;5040720;28;20289;-64
2021/09/28 08:37:34;;;;;;;;;;;46.00;99.90;;;;;;5032432;28;19917;-64
2021/09/28 08:39:59;;;;;;;;;;;46.60;89.20;;;;;;5039306;28;19939;-63
2021/09/28 08:42:25;;;;;;;;;;;47.40;68.30;;;;;;5031436;28;19951;-62
2021/09/28 08:44:52;;;;;;;;;;;48.30;52.70;;;;;;5035450;28;19913;-62
2021/09/28 08:47:36;;;;;;;;;;;48.70;39.70;;;;;;5029525;28;20429;-63
2021/09/28 08:50:03;;;;;;;;;;;48.70;28.20;;;;;;5039424;28;19917;-63
2021/09/28 08:52:30;;;;;;;;;;;48.80;19.30;;;;;;5045914;28;19930;-64
2021/09/28 08:54:56;;;;;;;;;;;49.70;12.60;;;;;;5032478;28;20338;-63
2021/09/28 08:57:21;;;;;;;;;;;50.40;7.00;;;;;;5036316;28;20081;-63
2021/09/28 08:59:51;;;;;;;;;;;50.50;1.00;;;;;;5031159;28;20020;-64
2021/09/28 09:02:17;;;;;;;;;;;51.00;1.00;;;;;;5039055;28;20051;-63
2021/09/28 09:04:46;;;;;;;;;;;50.90;1.00;;;;;;5044773;28;20469;-63
2021/09/28 09:07:22;;;;;;;;;;;48.70;1.00;;;;;;5040762;28;19913;-64
2021/09/28 09:09:48;;;;;;;;;;;45.70;1.00;;;;;;5039070;28;19916;-64
2021/09/28 09:12:13;;;;;;;;;;;45.70;1.00;;;;;;5039045;28;20294;-65
2021/09/28 09:14:40;;;;;;;;;;;47.60;1.00;;;;;;5038649;28;20004;-65
2021/09/28 09:17:06;;;;;;;;;;;43.70;1.00;;;;;;5047913;28;19912;-65
2021/09/28 09:19:32;;;;;;;;;;;44.00;1.00;;;;;;5024414;28;19960;-66
2021/09/28 09:21:59;;;;;;;;;;;46.00;1.00;;;;;;5046785;28;20318;-66
2021/09/28 09:24:44;;;;;;;;;;;48.20;1.00;;;;;;5036694;28;19917;-65
2021/09/28 09:27:14;;;;;;;;;;;48.10;1.00;;;;;;5036204;28;19981;-64
2021/09/28 09:29:40;;;;;;;;;;;45.40;1.00;;;;;;5041915;28;19913;-65
2021/09/28 09:32:05;;;;;;;;;;;38.40;1.00;;;;;;5046450;28;19913;-65
2021/09/28 09:34:31;;;;;;;;;;;34.10;1.00;;;;;;5032166;28;20019;-64
2021/09/28 09:36:58;;;;;;;;;;;31.40;1.00;;;;;;5039934;28;19921;-64
2021/09/28 09:39:26;;;;;;;;;;;29.30;1.00;;;;;;5041595;28;19923;-64
2021/09/28 09:42:02;;;;;;;;;;;31.80;1.00;;;;;;5044950;28;19924;-63
2021/09/28 09:44:28;;;;;;;;;;;34.00;1.00;;;;;;5033029;28;20000;-65
2021/09/28 09:46:53;;;;;;;;;;;35.90;1.00;;;;;;5040895;28;20038;-64
2021/09/28 09:49:23;;;;;;;;;;;35.70;1.00;;;;;;5044428;28;20389;-65
2021/09/28 09:51:53;;;;;;;;;;;36.50;1.00;;;;;;5042738;28;19917;-64
2021/09/28 09:54:29;;;;;;;;;;;37.30;1.00;;;;;;5041294;28;19917;-65
2021/09/28 09:56:55;;;;;;;;;;;37.30;1.00;;;;;;5042301;28;20018;-65
2021/09/28 09:59:21;;;;;;;;;;;37.40;1.00;;;;;;5044083;28;19928;-65
2021/09/28 10:01:47;;;;;;;;;;;37.60;1.00;;;;;;5038856;28;19917;-65
2021/09/28 10:04:14;;;;;;;;;;;38.10;1.00;;;;;;5037476;28;20392;-62
2021/09/28 10:06:40;;;;;;;;;;;38.30;1.00;;;;;;5041373;28;20015;-64
2021/09/28 10:09:34;;;;;;;;;;;38.30;1.00;;;;;;5038851;28;20008;-64
2021/09/28 10:12:04;;;;;;;;;;;38.40;1.00;;;;;;5045216;28;20215;-64
2021/09/28 10:14:36;;;;;;;;;;;39.30;1.00;;;;;;5035326;28;20230;-64
2021/09/28 10:17:21;;;;;;;;;;;38.70;1.00;;;;;;5033998;28;19919;-65
2021/09/28 10:19:48;;;;;;;;;;;38.60;1.00;;;;;;5031260;28;20282;-65
2021/09/28 10:22:34;;;;;;;;;;;38.40;1.00;;;;;;5037398;28;19937;-64
2021/09/28 10:25:18;;;;;;;;;;;36.40;1.00;;;;;;5023500;28;19992;-65
2021/09/28 10:27:44;;;;;;;;;;;34.10;1.00;;;;;;5030762;28;19913;-64
2021/09/28 10:30:09;;;;;;;;;;;31.00;1.00;;;;;;5036888;28;19924;-64
2021/09/28 10:32:45;;;;;;;;;;;30.60;1.00;;;;;;5036844;28;19913;-63
2021/09/28 10:35:14;;;;;;;;;;;30.90;1.00;;;;;;5044428;28;20330;-64
2021/09/28 10:37:42;;;;;;;;;;;31.30;1.00;;;;;;5018386;28;20664;-64
2021/09/28 10:40:10;;;;;;;;;;;31.50;1.00;;;;;;5047600;28;19928;-65
2021/09/28 10:42:48;;;;;;;;;;;30.40;1.00;;;;;;5045631;28;19912;-64
2021/09/28 10:45:17;;;;;;;;;;;29.60;1.00;;;;;;5037907;28;19947;-65
2021/09/28 10:47:53;;;;;;;;;;;29.00;1.00;;;;;;5031406;28;19913;-65
2021/09/28 10:50:21;;;;;;;;;;;28.70;1.00;;;;;;5042127;28;19920;-64
2021/09/28 10:52:47;;;;;;;;;;;28.70;1.00;;;;;;5044325;28;19913;-63
2021/09/28 10:55:13;;;;;;;;;;;27.90;1.00;;;;;;5029156;28;20334;-65
2021/09/28 10:57:54;;;;;;;;;;;27.10;1.00;;;;;;5034468;28;19943;-66
2021/09/28 11:00:20;;;;;;;;;;;26.00;1.00;;;;;;5020524;28;19917;-66
2021/09/28 11:02:51;;;;;;;;;;;26.80;1.00;;;;;;5037609;28;20381;-65
2021/09/28 11:05:32;;;;;;;;;;;27.40;1.00;;;;;;5031490;28;19982;-65
2021/09/28 11:08:02;;;;;;;;;;;28.10;1.00;;;;;;5042375;28;20333;-65
2021/09/28 11:10:29;;;;;;;;;;;28.90;1.70;;;;;;5046765;28;20033;-64
2021/09/28 11:12:54;;;;;;;;;;;29.20;2.30;;;;;;5039396;28;19921;-65
2021/09/28 11:15:20;;;;;;;;;;;28.80;3.10;;;;;;5061245;22;19929;-61
2021/09/28 11:17:46;;;;;;;;;;;28.80;3.60;;;;;;5017005;28;19920;-62
2021/09/28 11:20:22;;;;;;;;;;;29.30;5.50;;;;;;5010620;28;20365;-61
2021/09/28 11:22:54;;;;;;;;;;;28.90;4.90;;;;;;5026180;28;19913;-63
2021/09/28 11:25:20;;;;;;;;;;;28.70;6.60;;;;;;5016240;28;19917;-61
2021/09/28 11:27:58;;;;;;;;;;;29.00;7.70;;;;;;5008198;28;19924;-61
2021/09/28 11:30:24;;;;;;;;;;;29.50;8.40;;;;;;5005767;28;20542;-62
2021/09/28 11:32:59;;;;;;;;;;;29.10;8.30;;;;;;5003739;28;19929;-63
2021/09/28 11:35:24;;;;;;;;;;;29.30;8.80;;;;;;5009256;28;19967;-61
2021/09/28 11:37:57;;;;;;;;;;;29.80;10.20;;;;;;5002821;28;20064;-61
2021/09/28 11:40:35;;;;;;;;;;;30.30;9.30;;;;;;5024598;28;19913;-61
2021/09/28 11:43:19;;;;;;;;;;;30.00;8.30;;;;;;5010352;28;20288;-63
2021/09/28 11:45:46;;;;;;;;;;;29.40;7.70;;;;;;4999166;28;19924;-62
2021/09/28 11:48:11;;;;;;;;;;;29.60;9.30;;;;;;5012323;28;19951;-62
2021/09/28 11:50:37;;;;;;;;;;;29.80;9.80;;;;;;5000174;28;19952;-62
2021/09/28 11:53:06;;;;;;;;;;;30.00;10.40;;;;;;4999581;28;20302;-62
2021/09/28 11:55:32;;;;;;;;;;;29.50;9.80;;;;;;5002047;28;19913;-62
2021/09/28 11:57:57;;;;;;;;;;;28.60;9.50;;;;;;5009927;28;20267;-62
2021/09/28 12:00:23;;;;;;;;;;;28.10;9.40;;;;;;5000448;28;20047;-62
2021/09/28 12:02:48;;;;;;;;;;;28.00;10.60;;;;;;5006654;28;19956;-62
2021/09/28 12:05:28;;;;;;;;;;;27.10;9.50;;;;;;5007725;28;19917;-61
2021/09/28 12:07:57;;;;;;;;;;;26.40;10.10;;;;;;5012725;28;19983;-62
2021/09/28 12:10:23;;;;;;;;;;;26.40;12.00;;;;;;5008389;28;20281;-61
2021/09/28 12:12:49;;;;;;;;;;;26.30;13.20;;;;;;5006112;28;19910;-62
2021/09/28 12:15:14;;;;;;;;;;;26.90;15.70;;;;;;5004059;28;19924;-61
2021/09/28 12:17:44;;;;;;;;;;;26.80;16.20;;;;;;5005374;28;20362;-62
2021/09/28 12:20:22;;;;;;;;;;;26.20;16.60;;;;;;5001000;28;19925;-62
2021/09/28 12:22:59;;;;;;;;;;;25.60;17.00;;;;;;5008883;28;19960;-61
2021/09/28 12:25:31;;;;;;;;;;;25.40;18.40;;;;;;5001189;28;19913;-60
2021/09/28 12:28:02;;;;;;;;;;;25.40;20.20;;;;;;5006276;28;19989;-62
2021/09/28 12:30:28;;;;;;;;;;;24.90;20.80;;;;;;5007220;28;19922;-62
2021/09/28 12:32:54;;;;;;;;;;;24.40;21.20;;;;;;5008521;28;19914;-62
2021/09/28 12:35:26;;;;;;;;;;;24.30;23.00;;;;;;4999593;28;19918;-63
2021/09/28 12:37:56;;;;;;;;;;;24.20;24.40;;;;;;5003292;28;19914;-62
2021/09/28 12:40:26;;;;;;;;;;;23.80;25.10;;;;;;5001919;28;19924;-62
2021/09/28 12:43:03;;;;;;;;;;;23.50;25.20;;;;;;5000264;28;19920;-62
2021/09/28 12:45:29;;;;;;;;;;;23.30;26.60;;;;;;5011042;28;20328;-61
2021/09/28 12:47:56;;;;;;;;;;;23.10;27.50;;;;;;5005880;28;19924;-63
2021/09/28 12:50:23;;;;;;;;;;;22.80;28.50;;;;;;5005177;28;19913;-62
2021/09/28 12:52:49;;;;;;;;;;;23.00;30.70;;;;;;5005334;28;19933;-62
2021/09/28 12:55:15;;;;;;;;;;;22.70;30.80;;;;;;5006285;28;20448;-62
2021/09/28 12:57:40;;;;;;;;;;;22.90;33.40;;;;;;5008341;28;19945;-62
2021/09/28 13:00:06;;;;;;;;;;;22.80;33.90;;;;;;5005899;28;19951;-61
2021/09/28 13:02:32;;;;;;;;;;;22.90;35.90;;;;;;5013375;28;19918;-63
2021/09/28 13:04:59;;;;;;;;;;;22.80;36.60;;;;;;5002413;28;19913;-62
2021/09/28 13:07:25;;;;;;;;;;;22.70;36.70;;;;;;5019469;28;19952;-62
2021/09/28 13:09:51;;;;;;;;;;;22.90;39.40;;;;;;5018827;28;19999;-62
2021/09/28 13:12:16;;;;;;;;;;;22.60;39.40;;;;;;5020444;28;19916;-62
2021/09/28 13:14:42;;;;;;;;;;;22.40;40.20;;;;;;5021042;28;19913;-63
2021/09/28 13:17:07;;;;;;;;;;;22.30;41.80;;;;;;5021845;28;20346;-64
2021/09/28 13:19:33;;;;;;;;;;;22.30;42.20;;;;;;5024352;28;20011;-64
2021/09/28 13:21:58;;;;;;;;;;;22.50;44.20;;;;;;5019333;28;19927;-63
2021/09/28 13:24:24;;;;;;;;;;;22.70;45.80;;;;;;5022541;28;19921;-62
2021/09/28 13:26:49;;;;;;;;;;;22.70;46.30;;;;;;5028571;28;20665;-62
2021/09/28 13:29:15;;;;;;;;;;;22.50;45.60;;;;;;5013047;28;20020;-62
2021/09/28 13:31:41;;;;;;;;;;;22.10;46.40;;;;;;5025789;28;19917;-61
2021/09/28 13:34:07;;;;;;;;;;;21.90;47.50;;;;;;5021346;28;20231;-60
2021/09/28 13:36:33;;;;;;;;;;;21.70;49.00;;;;;;5025699;28;19989;-60
2021/09/28 13:39:00;;;;;;;;;;;21.70;50.50;;;;;;5015452;28;20443;-62
2021/09/28 13:41:25;;;;;;;;;;;21.20;50.80;;;;;;5014959;28;20037;-61
2021/09/28 13:43:51;;;;;;;;;;;20.90;52.50;;;;;;5011164;28;19988;-61
2021/09/28 13:46:16;;;;;;;;;;;20.90;54.80;;;;;;5020620;28;20364;-60
2021/09/28 13:48:42;;;;;;;;;;;20.70;54.70;;;;;;5010375;28;19914;-62
2021/09/28 13:51:07;;;;;;;;;;;20.50;55.90;;;;;;5025078;28;19959;-62
2021/09/28 13:53:33;;;;;;;;;;;20.30;58.40;;;;;;5017935;28;19937;-62
2021/09/28 13:55:59;;;;;;;;;;;20.40;61.90;;;;;;5020546;28;20282;-62
2021/09/28 13:58:24;;;;;;;;;;;20.60;64.40;;;;;;5024744;28;19913;-63
2021/09/28 14:00:50;;;;;;;;;;;20.70;67.20;;;;;;5016257;28;19921;-62
2021/09/28 14:03:15;;;;;;;;;;;20.80;68.50;;;;;;5026280;28;20047;-61
2021/09/28 14:05:41;;;;;;;;;;;20.60;70.40;;;;;;5016259;28;20386;-62
2021/09/28 14:08:07;;;;;;;;;;;20.60;71.50;;;;;;5021387;28;20343;-63
2021/09/28 14:10:33;;;;;;;;;;;20.70;70.80;;;;;;5014694;28;19924;-62
2021/09/28 14:12:58;;;;;;;;;;;20.50;71.70;;;;;;5017999;28;19999;-60
2021/09/28 14:15:24;;;;;;;;;;;20.50;74.60;;;;;;5015174;28;20382;-61
2021/09/28 14:17:49;;;;;;;;;;;20.30;76.40;;;;;;5020594;28;19917;-62
2021/09/28 14:20:15;;;;;;;;;;;20.20;79.60;;;;;;5017361;28;19929;-61
2021/09/28 14:22:40;;;;;;;;;;;20.10;84.30;;;;;;4996046;28;20394;-59
2021/09/28 14:25:06;;;;;;;;;;;20.20;85.70;;;;;;5011296;28;19914;-60
2021/09/28 14:27:32;;;;;;;;;;;20.20;89.70;;;;;;5009928;28;20438;-60